Time;durP1;ratioP1;P1;durP2;ratioP2;P2;SDS_P1;SDS_P2;PMS_P1;PMS_P2;Temp;Humidity;BMP_temperature;BMP_pressure;BME280_temperature;BME280_humidity;BME280_pressure;Samples;Min_cycle;Max_cycle;Signal;HPM_P1;HPM_P2
2022/08/02 00:02:03;;;;;;;3.05;2.50;;;19.20;99.90;;;;;;5043572;28;20041;-73
2022/08/02 00:04:30;;;;;;;5.28;2.38;;;19.20;99.90;;;;;;5039648;28;20026;-72
2022/08/02 00:06:56;;;;;;;8.55;2.30;;;19.20;99.90;;;;;;5037371;28;20030;-72
2022/08/02 00:09:21;;;;;;;4.57;2.40;;;19.10;99.90;;;;;;5042583;28;20151;-73
2022/08/02 00:11:47;;;;;;;4.53;2.33;;;19.10;99.90;;;;;;5041898;28;20421;-72
2022/08/02 00:14:13;;;;;;;4.72;2.22;;;19.00;99.90;;;;;;5051254;28;20036;-72
2022/08/02 00:16:38;;;;;;;8.32;2.95;;;19.00;99.90;;;;;;5039454;28;20033;-72
2022/08/02 00:19:04;;;;;;;4.68;2.85;;;19.00;99.90;;;;;;5042294;28;20037;-72
2022/08/02 00:21:30;;;;;;;6.35;2.70;;;19.00;99.90;;;;;;5040803;28;20087;-72
2022/08/02 00:23:56;;;;;;;5.30;2.50;;;19.00;99.90;;;;;;5048636;28;20482;-73
2022/08/02 00:26:21;;;;;;;6.55;2.60;;;19.00;99.90;;;;;;5044479;28;20108;-72
2022/08/02 00:28:47;;;;;;;5.93;2.63;;;19.00;99.90;;;;;;5045686;28;20029;-73
2022/08/02 00:31:13;;;;;;;4.18;2.88;;;18.90;99.90;;;;;;5044023;28;20040;-71
2022/08/02 00:33:38;;;;;;;3.75;2.50;;;18.90;99.90;;;;;;5048094;28;20040;-73
2022/08/02 00:36:04;;;;;;;3.63;3.25;;;18.90;99.90;;;;;;5043611;28;20056;-73
2022/08/02 00:38:30;;;;;;;6.25;3.17;;;18.90;99.90;;;;;;5043616;28;20029;-72
2022/08/02 00:40:56;;;;;;;3.80;2.38;;;18.80;99.90;;;;;;5043259;28;20087;-72
2022/08/02 00:43:21;;;;;;;8.98;2.70;;;18.80;99.90;;;;;;5042485;28;20060;-73
2022/08/02 00:45:47;;;;;;;5.55;2.80;;;18.70;99.90;;;;;;5042292;28;20100;-72
2022/08/02 00:48:13;;;;;;;9.27;3.10;;;18.80;99.90;;;;;;5046885;28;20041;-72
2022/08/02 00:50:40;;;;;;;6.07;2.92;;;18.80;99.90;;;;;;5043607;28;20024;-73
2022/08/02 00:53:08;;;;;;;6.10;3.00;;;18.70;99.90;;;;;;5041922;28;20138;-71
2022/08/02 00:55:35;;;;;;;6.72;3.22;;;18.80;99.90;;;;;;5037131;28;20030;-72
2022/08/02 00:58:01;;;;;;;9.48;3.05;;;18.80;99.90;;;;;;5046145;28;20108;-72
2022/08/02 01:00:26;;;;;;;5.10;3.08;;;18.90;99.90;;;;;;5047279;28;20116;-72
2022/08/02 01:02:52;;;;;;;7.43;2.78;;;18.80;99.90;;;;;;5046614;28;20044;-73
2022/08/02 01:05:18;;;;;;;2.38;2.17;;;18.80;99.90;;;;;;5050136;28;20026;-72
2022/08/02 01:07:43;;;;;;;5.28;2.63;;;18.80;99.90;;;;;;5039362;28;20497;-72
2022/08/02 01:10:09;;;;;;;7.20;2.83;;;18.70;99.90;;;;;;5048257;28;20029;-72
2022/08/02 01:12:36;;;;;;;7.03;2.88;;;18.70;99.90;;;;;;5045228;28;20412;-72
2022/08/02 01:15:08;;;;;;;2.88;2.30;;;18.70;99.90;;;;;;5046815;28;20620;-73
2022/08/02 01:17:52;;;;;;;4.68;2.90;;;18.70;99.90;;;;;;5047777;28;20032;-72
2022/08/02 01:21:08;;;;;;;2.85;2.45;;;18.70;99.90;;;;;;5044353;28;20040;-73
2022/08/02 01:24:07;;;;;;;5.88;3.10;;;18.70;99.90;;;;;;5016333;28;20124;-73
2022/08/02 01:26:45;;;;;;;3.88;2.58;;;18.70;99.90;;;;;;5004020;28;20478;-72
2022/08/02 01:29:17;;;;;;;5.22;2.45;;;18.70;99.90;;;;;;5047073;28;20045;-72
2022/08/02 01:32:01;;;;;;;4.80;2.70;;;18.50;99.90;;;;;;5051969;28;20079;-73
2022/08/02 01:34:52;;;;;;;5.95;3.25;;;18.50;99.90;;;;;;5046167;28;20029;-73
2022/08/02 01:37:23;;;;;;;4.57;3.10;;;18.50;99.90;;;;;;5043897;28;20021;-72
2022/08/02 01:39:54;;;;;;;6.03;2.95;;;18.50;99.90;;;;;;5047452;28;20049;-72
2022/08/02 01:42:21;;;;;;;5.32;3.00;;;18.60;99.90;;;;;;5049122;28;20136;-73
2022/08/02 01:44:49;;;;;;;3.75;2.05;;;18.50;99.90;;;;;;5046121;28;20037;-72
2022/08/02 01:47:20;;;;;;;3.17;2.55;;;18.40;99.90;;;;;;5045034;28;20665;-73
2022/08/02 01:49:49;;;;;;;6.63;3.00;;;18.50;99.90;;;;;;5044344;28;20109;-73
2022/08/02 01:52:23;;;;;;;3.58;3.28;;;18.50;99.90;;;;;;5045446;28;20104;-72
2022/08/02 01:55:17;;;;;;;6.55;3.30;;;18.50;99.90;;;;;;5044968;28;20036;-72
2022/08/02 01:57:49;;;;;;;7.03;3.20;;;18.50;99.90;;;;;;5049538;28;20047;-72
2022/08/02 02:00:17;;;;;;;8.25;3.70;;;18.40;99.90;;;;;;5047829;28;20021;-73
2022/08/02 02:02:46;;;;;;;7.75;4.13;;;18.40;99.90;;;;;;5043405;28;20077;-71
2022/08/02 02:05:15;;;;;;;6.70;3.22;;;18.40;99.90;;;;;;5049198;28;20023;-72
2022/08/02 02:07:43;;;;;;;5.68;3.72;;;18.40;99.90;;;;;;5040475;28;20496;-72
2022/08/02 02:10:13;;;;;;;5.18;3.53;;;18.30;99.90;;;;;;5047600;28;20020;-74
2022/08/02 02:12:40;;;;;;;5.05;3.22;;;18.30;99.90;;;;;;5043011;28;20033;-72
2022/08/02 02:15:09;;;;;;;4.45;3.50;;;18.30;99.90;;;;;;5049537;28;20029;-73
2022/08/02 02:17:35;;;;;;;6.07;3.38;;;18.10;99.90;;;;;;5042309;28;20022;-72
2022/08/02 02:20:03;;;;;;;8.82;3.78;;;18.10;99.90;;;;;;5046693;28;20025;-73
2022/08/02 02:22:29;;;;;;;5.30;3.47;;;18.10;99.90;;;;;;5044732;28;20477;-72
2022/08/02 02:24:54;;;;;;;4.65;3.22;;;18.10;99.90;;;;;;5044415;28;20036;-72
2022/08/02 02:27:23;;;;;;;4.53;3.30;;;18.10;99.90;;;;;;5043043;28;20501;-72
2022/08/02 02:29:50;;;;;;;10.25;4.35;;;18.10;99.90;;;;;;5050766;28;20472;-73
2022/08/02 02:32:17;;;;;;;4.75;3.92;;;18.00;99.90;;;;;;5048130;28;20028;-73
2022/08/02 02:34:45;;;;;;;8.43;4.15;;;17.90;99.90;;;;;;5044450;28;20052;-72
2022/08/02 02:37:20;;;;;;;4.88;3.70;;;17.90;99.90;;;;;;5044014;28;20477;-72
2022/08/02 02:39:50;;;;;;;8.63;3.42;;;17.80;99.90;;;;;;5038976;28;20076;-72
2022/08/02 02:42:18;;;;;;;5.85;3.55;;;17.80;99.90;;;;;;5044988;28;20032;-73
2022/08/02 02:44:46;;;;;;;6.65;3.60;;;17.80;99.90;;;;;;5039342;28;20026;-72
2022/08/02 02:47:15;;;;;;;4.93;3.58;;;17.80;99.90;;;;;;5040624;28;20489;-73
2022/08/02 02:49:43;;;;;;;7.60;3.50;;;17.80;99.90;;;;;;5043518;28;20022;-72
2022/08/02 02:52:13;;;;;;;3.92;3.33;;;17.90;99.90;;;;;;5045353;28;20028;-73
2022/08/02 02:54:38;;;;;;;8.93;3.60;;;17.90;99.90;;;;;;5042675;28;20017;-73
2022/08/02 02:57:05;;;;;;;3.92;3.40;;;17.80;99.90;;;;;;5047268;28;20021;-72
2022/08/02 02:59:33;;;;;;;5.88;3.97;;;17.90;99.90;;;;;;5037563;28;20029;-73
2022/08/02 03:02:00;;;;;;;6.55;3.55;;;17.90;99.90;;;;;;5039002;28;20041;-73
2022/08/02 03:04:29;;;;;;;9.13;3.30;;;17.90;99.90;;;;;;5044903;28;20470;-72
2022/08/02 03:06:55;;;;;;;4.82;3.53;;;17.90;99.90;;;;;;5041805;28;20460;-72
2022/08/02 03:09:21;;;;;;;4.97;4.18;;;17.90;99.90;;;;;;5045204;28;20159;-72
2022/08/02 03:11:47;;;;;;;6.18;4.07;;;17.90;99.90;;;;;;5044409;28;20026;-72
2022/08/02 03:14:14;;;;;;;5.10;4.50;;;17.80;99.90;;;;;;5049217;28;20415;-72
2022/08/02 03:16:50;;;;;;;8.52;5.82;;;17.80;99.90;;;;;;5045869;28;20018;-72
2022/08/02 03:19:17;;;;;;;10.27;4.90;;;17.80;99.90;;;;;;5043742;28;20051;-74
2022/08/02 03:21:44;;;;;;;8.73;5.40;;;17.80;99.90;;;;;;5042757;28;20517;-72
2022/08/02 03:24:10;;;;;;;7.53;4.47;;;17.70;99.90;;;;;;5047746;28;20059;-73
2022/08/02 03:26:36;;;;;;;8.63;4.90;;;17.70;99.90;;;;;;5044098;28;20056;-72
2022/08/02 03:29:02;;;;;;;7.43;4.95;;;17.70;99.90;;;;;;5046115;28;20048;-74
2022/08/02 03:31:28;;;;;;;6.90;4.38;;;17.70;99.90;;;;;;5043059;28;20477;-73
2022/08/02 03:33:57;;;;;;;7.82;4.20;;;17.60;99.90;;;;;;5043512;28;20080;-72
2022/08/02 03:36:26;;;;;;;7.97;5.05;;;17.60;99.90;;;;;;5045831;28;20029;-73
2022/08/02 03:38:53;;;;;;;7.07;4.40;;;17.60;99.90;;;;;;5045174;28;20048;-72
2022/08/02 03:41:20;;;;;;;5.43;4.65;;;17.70;99.90;;;;;;5045875;28;20052;-71
2022/08/02 03:43:47;;;;;;;5.97;4.28;;;17.70;99.90;;;;;;5036292;28;20100;-72
2022/08/02 03:46:15;;;;;;;6.03;4.10;;;17.70;99.90;;;;;;5044168;28;20123;-72
2022/08/02 03:48:42;;;;;;;5.88;4.25;;;17.70;99.90;;;;;;5045610;28;20013;-72
2022/08/02 03:51:09;;;;;;;4.82;4.13;;;17.60;99.90;;;;;;5041459;28;20029;-72
2022/08/02 03:53:36;;;;;;;8.05;4.72;;;17.60;99.90;;;;;;5048043;28;20028;-72
2022/08/02 03:56:02;;;;;;;6.93;4.30;;;17.60;99.90;;;;;;5044729;28;20057;-72
2022/08/02 03:58:28;;;;;;;8.93;4.07;;;17.60;99.90;;;;;;5047225;28;20394;-73
2022/08/02 04:00:57;;;;;;;8.93;3.60;;;17.50;99.90;;;;;;5045847;28;20045;-73
2022/08/02 04:03:23;;;;;;;6.55;3.53;;;17.60;99.90;;;;;;5046176;28;20033;-72
2022/08/02 04:05:49;;;;;;;8.95;4.32;;;17.60;99.90;;;;;;5048299;28;20378;-72
2022/08/02 04:08:15;;;;;;;10.50;5.00;;;17.50;99.90;;;;;;5047070;28;20103;-71
2022/08/02 04:13:29;;;;;;;4.28;3.03;;;17.50;99.90;;;;;;5038655;28;20064;-72
2022/08/02 04:15:58;;;;;;;5.47;4.18;;;17.50;99.90;;;;;;5049098;28;20094;-72
2022/08/02 04:18:33;;;;;;;6.78;3.75;;;17.50;99.90;;;;;;5045650;28;20044;-71
2022/08/02 04:21:03;;;;;;;9.63;4.03;;;17.40;99.90;;;;;;5046057;28;20457;-72
2022/08/02 04:23:30;;;;;;;7.25;3.92;;;17.40;99.90;;;;;;5046164;28;20055;-72
2022/08/02 04:25:58;;;;;;;6.28;4.05;;;17.30;99.90;;;;;;5049089;28;20032;-72
2022/08/02 04:28:24;;;;;;;5.35;4.13;;;17.30;99.90;;;;;;5045409;28;20071;-72
2022/08/02 04:30:51;;;;;;;5.35;4.18;;;17.30;99.90;;;;;;5045119;28;20025;-72
2022/08/02 04:33:17;;;;;;;8.70;3.95;;;17.30;99.90;;;;;;5043283;28;20543;-71
2022/08/02 04:35:44;;;;;;;6.60;4.43;;;17.40;99.90;;;;;;5048205;28;20032;-72
2022/08/02 04:38:13;;;;;;;5.47;4.03;;;17.40;99.90;;;;;;5045020;28;20025;-72
2022/08/02 04:40:39;;;;;;;10.40;4.47;;;17.50;99.90;;;;;;5044893;28;20029;-72
2022/08/02 04:43:05;;;;;;;9.90;4.47;;;17.40;99.90;;;;;;5045343;28;20048;-73
2022/08/02 04:45:31;;;;;;;7.93;5.07;;;17.40;99.90;;;;;;5038719;28;20028;-73
2022/08/02 04:47:57;;;;;;;8.27;4.47;;;17.40;99.90;;;;;;5041499;28;20041;-72
2022/08/02 04:50:22;;;;;;;6.65;4.40;;;17.40;99.90;;;;;;5046029;28;20481;-74
2022/08/02 04:52:48;;;;;;;8.02;4.50;;;17.50;99.90;;;;;;5044699;28;20462;-74
2022/08/02 04:55:14;;;;;;;8.40;4.32;;;17.50;99.90;;;;;;5045230;28;20025;-74
2022/08/02 04:57:54;;;;;;;5.60;4.68;;;17.40;99.90;;;;;;5040668;28;20045;-74
2022/08/02 05:00:21;;;;;;;8.93;5.10;;;17.50;99.90;;;;;;5043687;28;20025;-74
2022/08/02 05:02:47;;;;;;;7.63;4.80;;;17.40;99.90;;;;;;5044078;28;20077;-74
2022/08/02 05:05:14;;;;;;;8.00;4.72;;;17.50;99.90;;;;;;5048813;28;20027;-74
2022/08/02 05:07:39;;;;;;;11.48;5.07;;;17.40;99.90;;;;;;5046717;28;20398;-74
2022/08/02 05:10:05;;;;;;;11.00;5.43;;;17.40;99.90;;;;;;5041074;28;20022;-74
2022/08/02 05:12:31;;;;;;;10.38;5.72;;;17.40;99.90;;;;;;5042784;28;20033;-74
2022/08/02 05:14:57;;;;;;;9.30;5.65;;;17.40;99.90;;;;;;5044052;28;20022;-74
2022/08/02 05:17:22;;;;;;;8.48;4.60;;;17.50;99.90;;;;;;5045146;28;20485;-74
2022/08/02 05:19:48;;;;;;;5.45;4.95;;;17.50;99.90;;;;;;5038069;28;20516;-73
2022/08/02 05:22:14;;;;;;;8.80;5.35;;;17.50;99.90;;;;;;5041238;28;20068;-74
2022/08/02 05:24:39;;;;;;;6.10;4.65;;;17.50;99.90;;;;;;5045911;28;20025;-74
2022/08/02 05:27:05;;;;;;;8.07;4.80;;;17.50;99.90;;;;;;5047020;28;20389;-73
2022/08/02 05:29:30;;;;;;;6.25;4.97;;;17.60;99.90;;;;;;5041573;28;20458;-74
2022/08/02 05:31:56;;;;;;;8.00;5.78;;;17.50;99.90;;;;;;5036874;28;20465;-73
2022/08/02 05:34:22;;;;;;;8.13;5.65;;;17.60;99.90;;;;;;5039649;28;20020;-75
2022/08/02 05:36:47;;;;;;;7.90;6.03;;;17.60;99.90;;;;;;5042335;28;20489;-75
2022/08/02 05:39:13;;;;;;;9.02;7.28;;;17.50;99.90;;;;;;5038704;28;20025;-75
2022/08/02 05:41:39;;;;;;;9.07;6.75;;;17.60;99.90;;;;;;5045409;28;20036;-75
2022/08/02 05:44:04;;;;;;;10.10;6.88;;;17.60;99.90;;;;;;5047997;28;20040;-74
2022/08/02 05:46:30;;;;;;;15.48;8.30;;;17.60;99.90;;;;;;5046589;28;20037;-75
2022/08/02 05:48:56;;;;;;;18.13;8.00;;;17.70;99.90;;;;;;5046955;28;20526;-74
2022/08/02 05:51:32;;;;;;;13.15;10.02;;;17.70;99.90;;;;;;5040155;28;20072;-73
2022/08/02 05:54:10;;;;;;;17.20;10.45;;;17.80;99.90;;;;;;5044698;28;20048;-75
2022/08/02 05:56:48;;;;;;;17.80;10.82;;;17.90;99.90;;;;;;5039639;28;20032;-73
2022/08/02 05:59:36;;;;;;;19.52;9.55;;;17.90;99.90;;;;;;5048706;28;20111;-75
2022/08/02 06:02:11;;;;;;;15.32;8.13;;;18.00;99.90;;;;;;5047315;28;20409;-75
2022/08/02 06:04:51;;;;;;;14.00;10.18;;;18.00;99.90;;;;;;5041770;28;20021;-75
2022/08/02 06:07:19;;;;;;;29.60;9.85;;;18.20;99.90;;;;;;5043584;28;20021;-75
2022/08/02 06:09:48;;;;;;;40.88;11.85;;;18.30;99.90;;;;;;5043936;28;20025;-75
2022/08/02 06:12:16;;;;;;;43.35;10.20;;;18.30;99.90;;;;;;5045338;28;20098;-75
2022/08/02 06:14:42;;;;;;;21.10;10.48;;;18.40;99.90;;;;;;5047127;28;20083;-75
2022/08/02 06:17:08;;;;;;;17.27;9.95;;;18.40;99.90;;;;;;5043286;28;20021;-75
2022/08/02 06:19:37;;;;;;;13.20;10.73;;;18.60;99.90;;;;;;5044234;28;20036;-74
2022/08/02 06:22:16;;;;;;;14.50;9.93;;;18.70;99.90;;;;;;5043623;28;20048;-76
2022/08/02 06:24:45;;;;;;;11.98;10.27;;;18.70;99.90;;;;;;5044288;28;20025;-76
2022/08/02 06:27:14;;;;;;;10.02;8.90;;;18.80;99.90;;;;;;5052202;28;20033;-72
2022/08/02 06:29:41;;;;;;;13.50;8.43;;;19.00;99.90;;;;;;5048446;28;20117;-71
2022/08/02 06:32:08;;;;;;;13.75;9.63;;;19.10;99.90;;;;;;5043628;28;20040;-73
2022/08/02 06:34:38;;;;;;;13.27;9.77;;;19.20;99.90;;;;;;5037405;28;20056;-70
2022/08/02 06:37:16;;;;;;;10.38;9.38;;;19.30;99.90;;;;;;5045184;28;20056;-72
2022/08/02 06:39:45;;;;;;;12.18;9.20;;;19.30;99.90;;;;;;5045581;28;20049;-73
2022/08/02 06:42:14;;;;;;;9.32;7.55;;;19.40;99.90;;;;;;5038343;28;20502;-74
2022/08/02 06:44:40;;;;;;;12.77;8.77;;;19.50;99.90;;;;;;5036853;28;20501;-73
2022/08/02 06:47:06;;;;;;;12.45;8.95;;;19.50;99.90;;;;;;5043145;28;20056;-74
2022/08/02 06:49:31;;;;;;;11.98;7.82;;;19.60;99.90;;;;;;5044740;28;20039;-73
2022/08/02 06:51:57;;;;;;;11.15;9.93;;;19.60;99.90;;;;;;5042820;28;20021;-73
2022/08/02 06:54:23;;;;;;;10.30;8.80;;;19.70;99.90;;;;;;5047133;28;20508;-72
2022/08/02 06:56:48;;;;;;;14.00;8.82;;;19.80;99.90;;;;;;5044628;28;20529;-73
2022/08/02 06:59:14;;;;;;;11.43;9.45;;;19.90;99.90;;;;;;5041228;28;20091;-73
2022/08/02 07:01:40;;;;;;;12.10;9.77;;;19.90;99.90;;;;;;5038745;28;20033;-73
2022/08/02 07:04:07;;;;;;;13.10;9.55;;;20.00;99.90;;;;;;5041817;28;20029;-74
2022/08/02 07:06:32;;;;;;;12.75;9.48;;;20.10;99.90;;;;;;5042693;28;20080;-72
2022/08/02 07:08:58;;;;;;;13.20;8.40;;;20.20;99.90;;;;;;5040626;28;20033;-74
2022/08/02 07:11:24;;;;;;;12.30;8.90;;;20.30;99.90;;;;;;5042589;28;20023;-74
2022/08/02 07:13:49;;;;;;;14.05;9.80;;;20.40;99.90;;;;;;5042953;28;20029;-73
2022/08/02 07:16:15;;;;;;;9.90;7.85;;;20.50;99.90;;;;;;5046785;28;20040;-74
2022/08/02 07:18:41;;;;;;;10.80;7.90;;;20.60;99.90;;;;;;5043846;28;20025;-74
2022/08/02 07:21:06;;;;;;;9.43;8.20;;;20.80;99.90;;;;;;5043319;28;20469;-74
2022/08/02 07:23:32;;;;;;;10.60;8.55;;;21.00;99.90;;;;;;5038901;28;20517;-74
2022/08/02 07:25:59;;;;;;;10.18;7.35;;;21.00;99.90;;;;;;5040096;28;20109;-74
2022/08/02 07:28:24;;;;;;;10.90;7.78;;;21.10;99.90;;;;;;5047371;28;20017;-74
2022/08/02 07:30:50;;;;;;;8.75;7.00;;;21.20;99.90;;;;;;5040198;28;20036;-73
2022/08/02 07:33:16;;;;;;;11.68;7.22;;;21.30;99.90;;;;;;5043316;28;20092;-74
2022/08/02 07:35:41;;;;;;;9.75;5.72;;;21.40;99.90;;;;;;5038439;28;20534;-74
2022/08/02 07:38:07;;;;;;;5.82;5.25;;;21.60;99.90;;;;;;5046763;28;20488;-75
2022/08/02 07:40:33;;;;;;;9.63;5.72;;;21.70;99.90;;;;;;5037265;28;20037;-75
2022/08/02 07:42:59;;;;;;;7.85;5.57;;;21.80;99.90;;;;;;5045182;28;20398;-74
2022/08/02 07:45:26;;;;;;;5.65;4.97;;;21.90;99.90;;;;;;5044322;28;20064;-74
2022/08/02 07:47:51;;;;;;;4.53;4.13;;;21.90;99.90;;;;;;5045895;28;20745;-72
2022/08/02 07:50:19;;;;;;;7.35;4.53;;;22.00;99.90;;;;;;5041587;28;20029;-73
2022/08/02 07:52:45;;;;;;;9.48;4.38;;;21.90;99.90;;;;;;5045138;28;20029;-74
2022/08/02 07:55:13;;;;;;;10.85;5.00;;;22.20;99.90;;;;;;5042589;28;20106;-73
2022/08/02 07:57:40;;;;;;;7.28;4.88;;;22.20;99.90;;;;;;5043467;28;20028;-73
2022/08/02 08:00:10;;;;;;;6.88;4.03;;;22.30;99.90;;;;;;5043589;28;20470;-72
2022/08/02 08:02:36;;;;;;;6.05;4.03;;;22.50;99.90;;;;;;5049915;28;20033;-77
2022/08/02 08:05:02;;;;;;;7.60;4.90;;;22.60;99.90;;;;;;5038212;28;20025;-72
2022/08/02 08:07:28;;;;;;;5.63;4.05;;;22.70;99.90;;;;;;5044008;28;20099;-74
2022/08/02 08:09:53;;;;;;;6.28;4.03;;;22.80;99.90;;;;;;5039663;28;20578;-84
2022/08/02 08:12:19;;;;;;;7.35;3.60;;;22.90;99.90;;;;;;5043863;28;20033;-70
2022/08/02 08:14:45;;;;;;;7.53;3.85;;;23.00;99.90;;;;;;5042862;28;20024;-78
2022/08/02 08:17:11;;;;;;;5.68;2.95;;;23.00;99.90;;;;;;5045512;28;20376;-81
2022/08/02 08:19:37;;;;;;;3.03;2.78;;;23.20;99.90;;;;;;5039170;28;20038;-75
2022/08/02 08:22:02;;;;;;;3.97;3.15;;;23.40;99.90;;;;;;5046255;28;20037;-77
2022/08/02 08:24:28;;;;;;;6.03;3.55;;;23.50;99.90;;;;;;5046312;28;20049;-77
2022/08/02 08:26:55;;;;;;;3.97;3.20;;;23.60;99.90;;;;;;5043616;28;20061;-74
2022/08/02 08:29:21;;;;;;;5.05;3.17;;;23.80;99.90;;;;;;5047447;28;20108;-72
2022/08/02 08:31:47;;;;;;;3.90;3.50;;;23.80;99.90;;;;;;5046410;28;20031;-73
2022/08/02 08:34:13;;;;;;;3.50;2.97;;;24.00;99.90;;;;;;5044968;28;20104;-74
2022/08/02 08:36:40;;;;;;;3.70;3.30;;;24.00;99.90;;;;;;5043139;28;20043;-75
2022/08/02 08:39:05;;;;;;;3.10;2.70;;;24.00;99.90;;;;;;5040875;28;20948;-75
2022/08/02 08:41:31;;;;;;;3.30;2.83;;;24.10;99.90;;;;;;5033911;28;20486;-74
2022/08/02 08:44:00;;;;;;;4.10;2.72;;;24.30;99.90;;;;;;5043233;28;20412;-73
2022/08/02 08:46:31;;;;;;;4.65;2.92;;;24.50;99.90;;;;;;5049380;28;20032;-74
2022/08/02 08:49:05;;;;;;;2.90;2.60;;;24.70;99.90;;;;;;5043582;28;20022;-71
2022/08/02 08:51:36;;;;;;;2.92;2.40;;;24.80;99.90;;;;;;5043521;28;20025;-73
2022/08/02 08:54:05;;;;;;;3.08;2.70;;;25.00;99.90;;;;;;5045296;28;20029;-76
2022/08/02 08:56:33;;;;;;;3.63;2.90;;;25.10;99.90;;;;;;5037079;28;20080;-75
2022/08/02 08:59:00;;;;;;;3.53;2.35;;;25.20;99.90;;;;;;5040960;28;20036;-81
2022/08/02 09:01:26;;;;;;;4.57;2.30;;;25.30;99.90;;;;;;5041839;28;20037;-79
2022/08/02 09:03:52;;;;;;;4.40;2.45;;;25.40;99.90;;;;;;5037609;28;20029;-85
2022/08/02 09:06:17;;;;;;;3.55;3.03;;;25.60;99.90;;;;;;5051339;28;20029;-83
2022/08/02 09:08:43;;;;;;;2.40;2.20;;;25.80;99.90;;;;;;5036154;28;20031;-77
2022/08/02 09:11:14;;;;;;;4.38;2.80;;;25.80;99.90;;;;;;5042580;28;20531;-79
2022/08/02 09:13:52;;;;;;;3.40;3.10;;;25.70;99.90;;;;;;5036290;28;20021;-76
2022/08/02 09:16:39;;;;;;;4.32;2.72;;;25.80;99.90;;;;;;5051327;28;20496;-76
2022/08/02 09:19:22;;;;;;;3.28;2.97;;;25.80;99.90;;;;;;5048922;28;20040;-78
2022/08/02 09:21:49;;;;;;;4.72;3.47;;;25.90;99.90;;;;;;5046577;28;20025;-75
2022/08/02 09:24:17;;;;;;;5.15;2.53;;;25.90;99.90;;;;;;5049561;28;20049;-76
2022/08/02 09:26:43;;;;;;;3.15;2.80;;;26.10;99.90;;;;;;5051643;28;20096;-79
2022/08/02 09:29:08;;;;;;;2.72;2.50;;;26.30;99.90;;;;;;5054409;28;20377;-79
2022/08/02 09:31:34;;;;;;;3.08;2.13;;;26.40;99.90;;;;;;5043600;28;20071;-79
2022/08/02 09:34:00;;;;;;;5.43;2.42;;;26.50;99.90;;;;;;5045623;28;20032;-79
2022/08/02 09:36:36;;;;;;;5.55;2.33;;;26.60;99.90;;;;;;5048198;28;20025;-79
2022/08/02 09:39:05;;;;;;;2.38;2.17;;;26.80;99.90;;;;;;5045611;28;20040;-79
2022/08/02 09:41:33;;;;;;;3.85;2.20;;;26.80;99.90;;;;;;5042517;28;20363;-82
2022/08/02 09:44:01;;;;;;;7.07;3.17;;;27.00;99.90;;;;;;5046587;28;20545;-83
2022/08/02 09:46:29;;;;;;;5.30;2.47;;;27.10;99.90;;;;;;5045142;28;20025;-83
2022/08/02 09:49:03;;;;;;;4.53;2.20;;;27.30;99.90;;;;;;5043532;28;20045;-83
2022/08/02 09:51:36;;;;;;;2.70;2.50;;;27.40;99.90;;;;;;5044095;28;20025;-82
2022/08/02 09:54:05;;;;;;;3.58;2.33;;;27.40;99.90;;;;;;5051379;28;20116;-85
2022/08/02 09:57:00;;;;;;;4.13;2.33;;;27.50;99.90;;;;;;5045004;28;20026;-84
2022/08/02 09:59:27;;;;;;;3.78;2.40;;;27.60;99.90;;;;;;5038188;28;20137;-82
2022/08/02 10:01:55;;;;;;;4.72;2.45;;;27.80;99.90;;;;;;5044683;28;20036;-87
2022/08/02 10:04:23;;;;;;;5.57;2.30;;;27.80;99.90;;;;;;5049058;28;20035;-83
2022/08/02 10:06:50;;;;;;;4.35;2.40;;;27.80;99.90;;;;;;5045873;28;20013;-86
2022/08/02 10:09:17;;;;;;;3.35;3.00;;;28.10;99.90;;;;;;5045032;28;20036;-82
2022/08/02 10:11:43;;;;;;;4.03;2.70;;;28.00;99.90;;;;;;5045788;28;20080;-85
2022/08/02 10:14:09;;;;;;;8.52;2.50;;;27.90;99.90;;;;;;5051053;28;20032;-82
2022/08/02 10:16:42;;;;;;;4.70;2.10;;;28.10;99.90;;;;;;5044282;28;20032;-84
2022/08/02 10:19:08;;;;;;;3.10;2.40;;;28.30;99.90;;;;;;5051674;28;20020;-86
2022/08/02 10:21:45;;;;;;;4.35;2.30;;;28.30;99.90;;;;;;5054236;28;20098;-83
2022/08/02 10:24:12;;;;;;;2.35;2.15;;;28.20;99.90;;;;;;5046876;28;20516;-82
2022/08/02 10:26:40;;;;;;;2.22;2.00;;;28.40;99.90;;;;;;5046086;28;20064;-85
2022/08/02 10:29:09;;;;;;;3.40;2.30;;;28.60;99.90;;;;;;5053800;28;20068;-84
2022/08/02 10:31:51;;;;;;;4.63;2.05;;;28.60;99.40;;;;;;5053080;28;20056;-83
2022/08/02 10:34:26;;;;;;;15.50;3.97;;;28.70;99.20;;;;;;5043199;28;20055;-84
2022/08/02 10:36:53;;;;;;;6.28;3.00;;;28.60;98.80;;;;;;5056862;28;20028;-84
2022/08/02 10:39:19;;;;;;;65.68;10.57;;;28.50;98.50;;;;;;5042453;28;20033;-81
2022/08/02 10:41:47;;;;;;;3.33;2.00;;;28.70;99.20;;;;;;5044885;28;20033;-84
2022/08/02 10:44:28;;;;;;;9.10;4.88;;;28.70;98.00;;;;;;5051728;28;20035;-83
2022/08/02 10:47:12;;;;;;;5.15;2.63;;;28.70;98.00;;;;;;5052257;28;20155;-82
2022/08/02 10:49:52;;;;;;;2.20;1.95;;;28.80;99.20;;;;;;5041443;28;20022;-82
2022/08/02 10:52:20;;;;;;;4.47;1.70;;;28.50;98.70;;;;;;5042139;28;20113;-80
2022/08/02 10:54:50;;;;;;;2.30;2.10;;;28.60;97.90;;;;;;5047122;28;20148;-83
2022/08/02 10:57:20;;;;;;;4.03;2.38;;;28.80;98.40;;;;;;5047513;28;20041;-77
2022/08/02 10:59:47;;;;;;;2.13;2.03;;;28.60;98.10;;;;;;5047849;28;20025;-83
2022/08/02 11:02:31;;;;;;;2.30;2.10;;;28.60;98.00;;;;;;5044888;28;20037;-82
2022/08/02 11:04:56;;;;;;;3.95;1.73;;;28.60;98.60;;;;;;5049134;28;20091;-79
2022/08/02 11:07:56;;;;;;;2.63;1.88;;;28.70;97.00;;;;;;5047576;28;20033;-81
2022/08/02 11:10:30;;;;;;;4.50;2.33;;;28.60;97.30;;;;;;5035999;28;20045;-83
2022/08/02 11:13:10;;;;;;;5.20;1.85;;;28.70;97.30;;;;;;5045036;28;20083;-82
2022/08/02 11:16:03;;;;;;;2.75;1.98;;;28.80;97.00;;;;;;5044980;28;20021;-79
2022/08/02 11:18:51;;;;;;;3.60;2.38;;;28.80;97.00;;;;;;5049183;28;20068;-80
2022/08/02 11:21:24;;;;;;;4.45;2.33;;;28.90;97.40;;;;;;5040457;28;20021;-82
2022/08/02 11:23:51;;;;;;;2.55;2.10;;;29.00;97.10;;;;;;5045538;28;20108;-80
2022/08/02 11:26:33;;;;;;;4.18;2.20;;;29.10;96.80;;;;;;5045211;28;20017;-78
2022/08/02 11:29:01;;;;;;;2.97;1.92;;;29.30;95.10;;;;;;5050970;28;20037;-83
2022/08/02 11:31:28;;;;;;;2.97;2.10;;;29.40;94.70;;;;;;5038346;28;20021;-76
2022/08/02 11:33:54;;;;;;;3.45;2.20;;;29.60;94.90;;;;;;5040917;28;20537;-81
2022/08/02 11:36:20;;;;;;;4.68;2.45;;;29.50;95.30;;;;;;5044835;28;20024;-84
2022/08/02 11:38:46;;;;;;;2.55;1.80;;;29.50;96.50;;;;;;5040521;28;20045;-83
2022/08/02 11:41:22;;;;;;;2.95;1.77;;;29.50;95.80;;;;;;5045230;28;20468;-81
2022/08/02 11:43:55;;;;;;;4.05;1.88;;;29.10;95.10;;;;;;5043879;28;20037;-85
2022/08/02 11:46:20;;;;;;;2.97;2.03;;;29.10;95.50;;;;;;5037579;28;20085;-84
2022/08/02 11:48:46;;;;;;;3.25;1.80;;;29.00;96.50;;;;;;5045751;28;20144;-83
2022/08/02 11:51:14;;;;;;;2.33;2.00;;;29.00;95.40;;;;;;5050630;28;20120;-84
2022/08/02 11:53:42;;;;;;;4.72;1.70;;;28.90;94.90;;;;;;5041810;28;20382;-82
2022/08/02 11:56:09;;;;;;;3.20;1.60;;;28.70;96.40;;;;;;5045060;28;20028;-80
2022/08/02 11:58:35;;;;;;;3.83;2.42;;;29.00;96.30;;;;;;5048973;28;20154;-83
2022/08/02 12:01:02;;;;;;;1.95;1.60;;;29.30;97.10;;;;;;5042304;28;20107;-80
2022/08/02 12:03:27;;;;;;;2.70;1.73;;;29.50;94.50;;;;;;5039624;28;20038;-77
2022/08/02 12:05:53;;;;;;;1.77;1.55;;;29.70;95.20;;;;;;5046258;28;20040;-80
2022/08/02 12:08:23;;;;;;;1.80;1.70;;;29.70;94.60;;;;;;5039850;28;20564;-75
2022/08/02 12:10:49;;;;;;;1.50;1.40;;;29.70;93.50;;;;;;5045344;28;20025;-77
2022/08/02 12:13:14;;;;;;;4.15;1.15;;;29.90;94.50;;;;;;5048136;28;20032;-77
2022/08/02 12:15:45;;;;;;;5.78;1.60;;;30.10;95.00;;;;;;5038516;28;20032;-79
2022/08/02 12:20:59;;;;;;;1.60;1.50;;;30.40;92.40;;;;;;5042625;28;20041;-78
2022/08/02 12:23:25;;;;;;;1.65;1.40;;;30.50;93.00;;;;;;5049350;28;20175;-78
2022/08/02 12:26:05;;;;;;;2.03;1.40;;;30.60;92.40;;;;;;5040755;28;20025;-78
2022/08/02 12:28:37;;;;;;;3.92;1.63;;;30.20;92.20;;;;;;5044366;28;20029;-77
2022/08/02 12:31:05;;;;;;;2.80;1.30;;;30.10;92.60;;;;;;5046282;28;20022;-78
2022/08/02 12:33:47;;;;;;;1.63;1.52;;;30.20;92.60;;;;;;5041264;28;20112;-78
2022/08/02 12:36:17;;;;;;;1.08;0.95;;;30.40;91.60;;;;;;5041973;28;20055;-78
2022/08/02 12:38:56;;;;;;;1.40;1.20;;;30.40;90.40;;;;;;5043416;28;20590;-79
2022/08/02 12:41:23;;;;;;;2.78;1.58;;;30.30;90.20;;;;;;5042414;28;20036;-79
2022/08/02 12:43:50;;;;;;;2.83;1.30;;;30.40;91.10;;;;;;5039994;28;20033;-78
2022/08/02 12:46:18;;;;;;;2.10;1.45;;;30.50;90.10;;;;;;5043092;28;20025;-77
2022/08/02 12:48:44;;;;;;;3.10;1.20;;;30.50;90.00;;;;;;5034975;28;20033;-77
2022/08/02 12:51:23;;;;;;;4.82;1.42;;;30.40;90.30;;;;;;5044158;28;20501;-78
2022/08/02 12:53:50;;;;;;;4.78;1.40;;;30.50;91.10;;;;;;5052088;28;20032;-78
2022/08/02 12:56:29;;;;;;;2.47;1.30;;;30.80;92.10;;;;;;5046169;28;20081;-78
2022/08/02 12:58:55;;;;;;;1.30;1.20;;;30.90;91.00;;;;;;5050987;28;20525;-75
2022/08/02 13:01:23;;;;;;;2.30;1.17;;;30.80;91.00;;;;;;5046662;28;20036;-80